sensor_id;sensor_type;location;lat;lon;timestamp;pressure;altitude;pressure_sealevel;temperature;humidity
39411;BME280;26579;43.238;23.124;2023-03-13T00:01:53;97308.03;;;4.19;48.55
39411;BME280;26579;43.238;23.124;2023-03-13T00:04:19;97309.91;;;4.16;48.86
39411;BME280;26579;43.238;23.124;2023-03-13T00:06:45;97322.59;;;4.20;48.79
39411;BME280;26579;43.238;23.124;2023-03-13T00:09:13;97337.28;;;4.18;49.69
39411;BME280;26579;43.238;23.124;2023-03-13T00:11:39;97336.59;;;4.15;49.10
39411;BME280;26579;43.238;23.124;2023-03-13T00:14:06;97327.22;;;4.14;48.87
39411;BME280;26579;43.238;23.124;2023-03-13T00:16:32;97327.38;;;4.11;49.62
39411;BME280;26579;43.238;23.124;2023-03-13T00:18:58;97331.44;;;4.15;49.05
39411;BME280;26579;43.238;23.124;2023-03-13T00:21:26;97328.97;;;4.13;49.13
39411;BME280;26579;43.238;23.124;2023-03-13T00:23:51;97337.53;;;4.14;48.79
39411;BME280;26579;43.238;23.124;2023-03-13T00:26:20;97335.53;;;4.19;49.02
39411;BME280;26579;43.238;23.124;2023-03-13T00:28:46;97299.09;;;3.92;49.80
39411;BME280;26579;43.238;23.124;2023-03-13T00:31:18;97331.28;;;4.00;49.81
39411;BME280;26579;43.238;23.124;2023-03-13T00:33:48;97329.84;;;3.77;50.12
39411;BME280;26579;43.238;23.124;2023-03-13T00:36:22;97329.59;;;3.65;50.28
39411;BME280;26579;43.238;23.124;2023-03-13T00:38:49;97334.56;;;3.50;50.80
39411;BME280;26579;43.238;23.124;2023-03-13T00:41:17;97321.03;;;3.28;51.25
39411;BME280;26579;43.238;23.124;2023-03-13T00:43:43;97338.13;;;3.48;51.08
39411;BME280;26579;43.238;23.124;2023-03-13T00:46:11;97320.44;;;3.40;51.14
39411;BME280;26579;43.238;23.124;2023-03-13T00:48:37;97324.09;;;3.36;52.25
39411;BME280;26579;43.238;23.124;2023-03-13T00:51:04;97336.66;;;3.42;51.34
39411;BME280;26579;43.238;23.124;2023-03-13T00:53:30;97331.19;;;3.31;52.63
39411;BME280;26579;43.238;23.124;2023-03-13T00:55:59;97330.34;;;3.30;52.37
39411;BME280;26579;43.238;23.124;2023-03-13T00:58:27;97332.38;;;3.24;52.08
39411;BME280;26579;43.238;23.124;2023-03-13T01:00:53;97318.31;;;3.31;52.17
39411;BME280;26579;43.238;23.124;2023-03-13T01:03:21;97321.03;;;3.47;51.48
39411;BME280;26579;43.238;23.124;2023-03-13T01:05:58;97317.63;;;3.46;51.08
39411;BME280;26579;43.238;23.124;2023-03-13T01:08:25;97312.69;;;3.23;51.82
39411;BME280;26579;43.238;23.124;2023-03-13T01:11:10;97304.00;;;3.25;51.25
39411;BME280;26579;43.238;23.124;2023-03-13T01:13:36;97328.03;;;3.43;51.59
39411;BME280;26579;43.238;23.124;2023-03-13T01:16:03;97327.75;;;3.49;51.28
39411;BME280;26579;43.238;23.124;2023-03-13T01:18:29;97325.63;;;3.57;51.54
39411;BME280;26579;43.238;23.124;2023-03-13T01:20:55;97318.22;;;3.51;50.99
39411;BME280;26579;43.238;23.124;2023-03-13T01:23:21;97316.47;;;3.52;50.70
39411;BME280;26579;43.238;23.124;2023-03-13T01:25:46;97329.75;;;3.61;50.60
39411;BME280;26579;43.238;23.124;2023-03-13T01:28:13;97317.03;;;3.58;50.63
39411;BME280;26579;43.238;23.124;2023-03-13T01:30:39;97331.88;;;3.71;50.48
39411;BME280;26579;43.238;23.124;2023-03-13T01:33:04;97326.88;;;3.68;51.10
39411;BME280;26579;43.238;23.124;2023-03-13T01:35:30;97318.22;;;3.51;50.77
39411;BME280;26579;43.238;23.124;2023-03-13T01:37:57;97330.50;;;3.63;50.52
39411;BME280;26579;43.238;23.124;2023-03-13T01:40:23;97310.78;;;3.45;51.04
39411;BME280;26579;43.238;23.124;2023-03-13T01:42:58;97316.22;;;3.39;51.11
39411;BME280;26579;43.238;23.124;2023-03-13T01:51:19;97343.94;;;3.15;52.59
39411;BME280;26579;43.238;23.124;2023-03-13T01:53:49;97339.34;;;3.03;53.75
39411;BME280;26579;43.238;23.124;2023-03-13T01:56:20;97331.19;;;2.93;52.92
39411;BME280;26579;43.238;23.124;2023-03-13T01:58:48;97327.97;;;2.88;53.86
39411;BME280;26579;43.238;23.124;2023-03-13T02:01:16;97348.38;;;2.92;52.76
39411;BME280;26579;43.238;23.124;2023-03-13T02:03:43;97328.97;;;2.85;53.01
39411;BME280;26579;43.238;23.124;2023-03-13T02:06:11;97356.09;;;2.92;53.42
39411;BME280;26579;43.238;23.124;2023-03-13T02:08:41;97353.38;;;2.95;53.19
39411;BME280;26579;43.238;23.124;2023-03-13T02:14:11;97367.56;;;2.85;53.88
39411;BME280;26579;43.238;23.124;2023-03-13T02:16:38;97353.75;;;2.67;53.26
39411;BME280;26579;43.238;23.124;2023-03-13T02:19:35;97377.56;;;2.91;52.95
39411;BME280;26579;43.238;23.124;2023-03-13T02:27:37;97360.63;;;3.06;52.17
39411;BME280;26579;43.238;23.124;2023-03-13T02:30:06;97376.97;;;3.24;52.34
39411;BME280;26579;43.238;23.124;2023-03-13T02:32:32;97360.00;;;3.20;51.57
39411;BME280;26579;43.238;23.124;2023-03-13T02:35:02;97371.47;;;3.32;51.74
39411;BME280;26579;43.238;23.124;2023-03-13T02:37:29;97354.44;;;3.29;51.94
39411;BME280;26579;43.238;23.124;2023-03-13T02:39:59;97380.72;;;3.36;51.60
39411;BME280;26579;43.238;23.124;2023-03-13T02:42:27;97359.50;;;3.31;50.81
39411;BME280;26579;43.238;23.124;2023-03-13T02:44:53;97386.50;;;3.41;51.12
39411;BME280;26579;43.238;23.124;2023-03-13T02:47:20;97387.66;;;3.34;51.52
39411;BME280;26579;43.238;23.124;2023-03-13T02:49:46;97389.34;;;3.35;51.54
39411;BME280;26579;43.238;23.124;2023-03-13T02:54:56;97402.34;;;3.32;51.98
39411;BME280;26579;43.238;23.124;2023-03-13T02:57:23;97394.63;;;3.32;51.82
39411;BME280;26579;43.238;23.124;2023-03-13T02:59:48;97383.34;;;3.34;51.16
39411;BME280;26579;43.238;23.124;2023-03-13T03:02:14;97374.03;;;3.32;50.99
39411;BME280;26579;43.238;23.124;2023-03-13T03:04:40;97394.22;;;3.41;51.31
39411;BME280;26579;43.238;23.124;2023-03-13T03:07:05;97401.78;;;3.44;51.18
39411;BME280;26579;43.238;23.124;2023-03-13T03:09:31;97383.03;;;3.23;51.08
39411;BME280;26579;43.238;23.124;2023-03-13T03:12:02;97396.50;;;3.28;51.61
39411;BME280;26579;43.238;23.124;2023-03-13T03:14:28;97421.19;;;3.13;52.46
39411;BME280;26579;43.238;23.124;2023-03-13T03:16:54;97425.22;;;3.00;51.96
39411;BME280;26579;43.238;23.124;2023-03-13T03:19:20;97418.50;;;2.96;52.08
39411;BME280;26579;43.238;23.124;2023-03-13T03:21:46;97425.25;;;2.99;52.28
39411;BME280;26579;43.238;23.124;2023-03-13T03:24:12;97431.13;;;2.82;53.15
39411;BME280;26579;43.238;23.124;2023-03-13T03:26:37;97443.53;;;2.92;52.89
39411;BME280;26579;43.238;23.124;2023-03-13T03:29:09;97433.56;;;2.85;53.05
39411;BME280;26579;43.238;23.124;2023-03-13T03:31:36;97446.25;;;2.89;53.04
39411;BME280;26579;43.238;23.124;2023-03-13T03:34:02;97466.13;;;2.86;53.48
39411;BME280;26579;43.238;23.124;2023-03-13T03:36:28;97475.94;;;2.76;53.74
39411;BME280;26579;43.238;23.124;2023-03-13T03:38:54;97482.56;;;2.61;53.61
39411;BME280;26579;43.238;23.124;2023-03-13T03:41:24;97494.91;;;2.53;54.03
39411;BME280;26579;43.238;23.124;2023-03-13T03:43:49;97472.84;;;2.47;53.59
39411;BME280;26579;43.238;23.124;2023-03-13T03:46:19;97475.06;;;2.57;52.78
39411;BME280;26579;43.238;23.124;2023-03-13T03:48:45;97482.69;;;2.58;53.15
39411;BME280;26579;43.238;23.124;2023-03-13T03:51:12;97505.97;;;2.76;53.10
39411;BME280;26579;43.238;23.124;2023-03-13T03:53:40;97507.00;;;2.71;52.93
39411;BME280;26579;43.238;23.124;2023-03-13T03:56:06;97505.00;;;2.78;53.23
39411;BME280;26579;43.238;23.124;2023-03-13T03:58:34;97499.53;;;2.65;52.67
39411;BME280;26579;43.238;23.124;2023-03-13T04:01:12;97500.75;;;2.57;52.63
39411;BME280;26579;43.238;23.124;2023-03-13T04:03:38;97517.28;;;2.71;52.42
39411;BME280;26579;43.238;23.124;2023-03-13T04:06:04;97503.38;;;2.55;52.85
39411;BME280;26579;43.238;23.124;2023-03-13T04:08:30;97531.47;;;2.60;53.04
39411;BME280;26579;43.238;23.124;2023-03-13T04:10:56;97520.72;;;2.50;53.46
39411;BME280;26579;43.238;23.124;2023-03-13T04:13:23;97516.31;;;2.54;53.08
39411;BME280;26579;43.238;23.124;2023-03-13T04:15:49;97541.09;;;2.77;52.71
39411;BME280;26579;43.238;23.124;2023-03-13T04:18:16;97543.44;;;2.81;52.70
39411;BME280;26579;43.238;23.124;2023-03-13T04:20:42;97557.88;;;2.85;52.79
39411;BME280;26579;43.238;23.124;2023-03-13T04:23:08;97551.38;;;2.77;51.69
39411;BME280;26579;43.238;23.124;2023-03-13T04:25:34;97548.56;;;2.61;52.35
39411;BME280;26579;43.238;23.124;2023-03-13T04:28:00;97547.97;;;2.54;53.13
39411;BME280;26579;43.238;23.124;2023-03-13T04:30:33;97568.53;;;2.54;53.24
39411;BME280;26579;43.238;23.124;2023-03-13T04:33:24;97533.75;;;2.45;53.89
39411;BME280;26579;43.238;23.124;2023-03-13T04:36:13;97557.09;;;2.61;53.43
39411;BME280;26579;43.238;23.124;2023-03-13T04:38:55;97547.78;;;2.59;53.26
39411;BME280;26579;43.238;23.124;2023-03-13T04:41:48;97559.56;;;2.64;52.50
39411;BME280;26579;43.238;23.124;2023-03-13T04:44:34;97562.13;;;2.64;53.16
39411;BME280;26579;43.238;23.124;2023-03-13T04:47:11;97536.78;;;2.55;53.08
39411;BME280;26579;43.238;23.124;2023-03-13T04:50:03;97543.28;;;2.64;53.60
39411;BME280;26579;43.238;23.124;2023-03-13T04:52:47;97546.28;;;2.75;53.11
39411;BME280;26579;43.238;23.124;2023-03-13T04:55:32;97548.41;;;2.86;52.15
39411;BME280;26579;43.238;23.124;2023-03-13T04:58:05;97559.22;;;3.35;51.55
39411;BME280;26579;43.238;23.124;2023-03-13T05:00:43;97558.94;;;3.99;49.33
39411;BME280;26579;43.238;23.124;2023-03-13T05:03:29;97554.22;;;4.45;47.82
39411;BME280;26579;43.238;23.124;2023-03-13T05:06:07;97559.13;;;4.69;47.15
39411;BME280;26579;43.238;23.124;2023-03-13T05:08:39;97580.53;;;4.88;46.74
39411;BME280;26579;43.238;23.124;2023-03-13T05:11:25;97578.34;;;4.81;46.85
39411;BME280;26579;43.238;23.124;2023-03-13T05:14:14;97597.53;;;4.75;46.85
39411;BME280;26579;43.238;23.124;2023-03-13T05:16:54;97592.91;;;4.82;47.01
39411;BME280;26579;43.238;23.124;2023-03-13T05:19:45;97594.97;;;5.44;45.13
39411;BME280;26579;43.238;23.124;2023-03-13T05:22:20;97590.06;;;5.73;44.82
39411;BME280;26579;43.238;23.124;2023-03-13T05:25:24;97605.31;;;6.27;43.86
39411;BME280;26579;43.238;23.124;2023-03-13T05:28:08;97592.75;;;6.98;41.49
39411;BME280;26579;43.238;23.124;2023-03-13T05:30:56;97596.25;;;7.28;41.10
39411;BME280;26579;43.238;23.124;2023-03-13T05:33:41;97571.38;;;7.97;39.43
39411;BME280;26579;43.238;23.124;2023-03-13T05:36:22;97583.00;;;7.77;39.49
39411;BME280;26579;43.238;23.124;2023-03-13T05:39:07;97559.88;;;7.29;40.49
39411;BME280;26579;43.238;23.124;2023-03-13T05:41:52;97558.13;;;6.85;41.64
39411;BME280;26579;43.238;23.124;2023-03-13T05:44:36;97572.16;;;7.11;41.34
39411;BME280;26579;43.238;23.124;2023-03-13T05:47:25;97577.09;;;7.16;40.73
39411;BME280;26579;43.238;23.124;2023-03-13T05:50:11;97556.88;;;6.76;41.54
39411;BME280;26579;43.238;23.124;2023-03-13T05:52:57;97572.78;;;6.39;42.93
39411;BME280;26579;43.238;23.124;2023-03-13T05:55:40;97567.63;;;7.15;41.42
39411;BME280;26579;43.238;23.124;2023-03-13T05:58:18;97559.81;;;6.70;41.65
39411;BME280;26579;43.238;23.124;2023-03-13T06:01:08;97582.44;;;6.19;43.28
39411;BME280;26579;43.238;23.124;2023-03-13T06:03:45;97576.84;;;5.95;43.50
39411;BME280;26579;43.238;23.124;2023-03-13T06:06:13;97559.34;;;5.67;43.91
39411;BME280;26579;43.238;23.124;2023-03-13T06:08:51;97554.97;;;5.52;44.45
39411;BME280;26579;43.238;23.124;2023-03-13T06:11:17;97578.06;;;5.55;44.95
39411;BME280;26579;43.238;23.124;2023-03-13T06:13:43;97589.03;;;5.42;45.05
39411;BME280;26579;43.238;23.124;2023-03-13T06:16:18;97584.84;;;5.40;45.72
39411;BME280;26579;43.238;23.124;2023-03-13T06:18:46;97578.84;;;5.39;45.20
39411;BME280;26579;43.238;23.124;2023-03-13T06:21:12;97573.63;;;5.74;45.08
39411;BME280;26579;43.238;23.124;2023-03-13T06:23:38;97564.06;;;6.71;43.12
39411;BME280;26579;43.238;23.124;2023-03-13T06:26:04;97557.47;;;9.07;38.34
39411;BME280;26579;43.238;23.124;2023-03-13T06:28:29;97553.50;;;11.82;32.82
39411;BME280;26579;43.238;23.124;2023-03-13T06:31:00;97541.97;;;12.41;31.24
39411;BME280;26579;43.238;23.124;2023-03-13T06:33:26;97552.59;;;12.60;30.82
39411;BME280;26579;43.238;23.124;2023-03-13T06:35:51;97543.47;;;13.40;30.85
39411;BME280;26579;43.238;23.124;2023-03-13T06:38:17;97545.00;;;14.44;28.58
39411;BME280;26579;43.238;23.124;2023-03-13T06:40:43;97545.59;;;15.45;25.99
39411;BME280;26579;43.238;23.124;2023-03-13T06:43:08;97546.03;;;15.21;26.62
39411;BME280;26579;43.238;23.124;2023-03-13T06:45:35;97540.53;;;15.81;25.33
39411;BME280;26579;43.238;23.124;2023-03-13T06:48:02;97539.25;;;15.95;25.04
39411;BME280;26579;43.238;23.124;2023-03-13T06:50:30;97514.88;;;14.79;25.23
39411;BME280;26579;43.238;23.124;2023-03-13T06:52:56;97525.63;;;14.66;26.26
39411;BME280;26579;43.238;23.124;2023-03-13T06:55:22;97511.81;;;14.74;26.28
39411;BME280;26579;43.238;23.124;2023-03-13T06:57:51;97530.59;;;14.69;26.12
39411;BME280;26579;43.238;23.124;2023-03-13T07:00:18;97530.03;;;14.66;26.99
39411;BME280;26579;43.238;23.124;2023-03-13T07:02:44;97525.13;;;14.42;26.94
39411;BME280;26579;43.238;23.124;2023-03-13T07:05:10;97525.56;;;14.37;27.01
39411;BME280;26579;43.238;23.124;2023-03-13T07:07:35;97524.47;;;14.40;27.04
39411;BME280;26579;43.238;23.124;2023-03-13T07:10:01;97528.88;;;13.99;26.76
39411;BME280;26579;43.238;23.124;2023-03-13T07:12:27;97513.19;;;12.84;28.49
39411;BME280;26579;43.238;23.124;2023-03-13T07:14:53;97509.38;;;12.88;27.99
39411;BME280;26579;43.238;23.124;2023-03-13T07:17:18;97508.88;;;13.57;28.35
39411;BME280;26579;43.238;23.124;2023-03-13T07:19:44;97507.22;;;13.56;27.49
39411;BME280;26579;43.238;23.124;2023-03-13T07:22:10;97522.81;;;13.37;28.57
39411;BME280;26579;43.238;23.124;2023-03-13T07:24:35;97523.63;;;13.17;28.70
39411;BME280;26579;43.238;23.124;2023-03-13T07:27:01;97516.22;;;13.22;29.00
39411;BME280;26579;43.238;23.124;2023-03-13T07:29:27;97527.59;;;13.32;28.83
39411;BME280;26579;43.238;23.124;2023-03-13T07:31:52;97525.59;;;13.03;28.29
39411;BME280;26579;43.238;23.124;2023-03-13T07:34:18;97538.81;;;12.58;28.69
39411;BME280;26579;43.238;23.124;2023-03-13T07:36:44;97539.25;;;12.31;29.32
39411;BME280;26579;43.238;23.124;2023-03-13T07:39:10;97541.13;;;12.40;29.72
39411;BME280;26579;43.238;23.124;2023-03-13T07:41:35;97531.91;;;12.36;29.48
39411;BME280;26579;43.238;23.124;2023-03-13T07:44:01;97540.19;;;12.74;29.84
39411;BME280;26579;43.238;23.124;2023-03-13T07:46:26;97511.84;;;12.69;30.27
39411;BME280;26579;43.238;23.124;2023-03-13T07:48:52;97524.94;;;12.90;29.42
39411;BME280;26579;43.238;23.124;2023-03-13T07:51:23;97526.88;;;12.77;29.80
39411;BME280;26579;43.238;23.124;2023-03-13T07:53:50;97519.16;;;12.54;28.70
39411;BME280;26579;43.238;23.124;2023-03-13T07:56:20;97533.59;;;12.90;28.57
39411;BME280;26579;43.238;23.124;2023-03-13T07:58:47;97519.88;;;13.09;28.77
39411;BME280;26579;43.238;23.124;2023-03-13T08:01:22;97529.78;;;13.27;28.04
39411;BME280;26579;43.238;23.124;2023-03-13T08:03:49;97540.19;;;13.06;28.04
39411;BME280;26579;43.238;23.124;2023-03-13T08:06:17;97541.66;;;12.99;28.45
39411;BME280;26579;43.238;23.124;2023-03-13T08:08:43;97519.34;;;13.16;28.01
39411;BME280;26579;43.238;23.124;2023-03-13T08:11:11;97535.41;;;13.74;29.24
39411;BME280;26579;43.238;23.124;2023-03-13T08:13:38;97526.06;;;13.50;27.54
39411;BME280;26579;43.238;23.124;2023-03-13T08:16:09;97522.50;;;13.82;27.87
39411;BME280;26579;43.238;23.124;2023-03-13T08:18:36;97523.53;;;14.10;27.47
39411;BME280;26579;43.238;23.124;2023-03-13T08:21:05;97544.47;;;14.50;26.62
39411;BME280;26579;43.238;23.124;2023-03-13T08:23:31;97498.94;;;13.82;27.80
39411;BME280;26579;43.238;23.124;2023-03-13T08:26:17;97530.47;;;14.11;27.50
39411;BME280;26579;43.238;23.124;2023-03-13T08:28:45;97530.38;;;14.42;27.92
39411;BME280;26579;43.238;23.124;2023-03-13T08:31:17;97536.53;;;14.81;27.03
39411;BME280;26579;43.238;23.124;2023-03-13T08:33:45;97542.88;;;15.08;27.31
39411;BME280;26579;43.238;23.124;2023-03-13T08:38:38;97535.97;;;14.87;25.99
39411;BME280;26579;43.238;23.124;2023-03-13T08:41:04;97537.22;;;15.03;26.33
39411;BME280;26579;43.238;23.124;2023-03-13T08:43:30;97528.81;;;14.60;26.37
39411;BME280;26579;43.238;23.124;2023-03-13T08:45:55;97533.22;;;14.69;26.56
39411;BME280;26579;43.238;23.124;2023-03-13T08:48:21;97530.59;;;14.79;26.10
39411;BME280;26579;43.238;23.124;2023-03-13T08:50:47;97511.06;;;14.33;26.11
39411;BME280;26579;43.238;23.124;2023-03-13T08:53:22;97510.91;;;14.25;26.09
39411;BME280;26579;43.238;23.124;2023-03-13T08:55:52;97516.66;;;14.69;26.24
39411;BME280;26579;43.238;23.124;2023-03-13T08:58:18;97528.03;;;14.48;25.46
39411;BME280;26579;43.238;23.124;2023-03-13T09:00:44;97510.50;;;14.20;25.86
39411;BME280;26579;43.238;23.124;2023-03-13T09:03:10;97515.16;;;14.66;26.49
39411;BME280;26579;43.238;23.124;2023-03-13T09:05:38;97517.38;;;14.21;26.51
39411;BME280;26579;43.238;23.124;2023-03-13T09:08:04;97536.53;;;14.81;25.83
39411;BME280;26579;43.238;23.124;2023-03-13T09:10:34;97535.41;;;15.23;26.16
39411;BME280;26579;43.238;23.124;2023-03-13T09:13:01;97541.06;;;15.84;25.49
39411;BME280;26579;43.238;23.124;2023-03-13T09:15:27;97534.50;;;15.71;26.19
39411;BME280;26579;43.238;23.124;2023-03-13T09:17:52;97534.00;;;15.95;24.98
39411;BME280;26579;43.238;23.124;2023-03-13T09:20:18;97542.75;;;15.76;24.91
39411;BME280;26579;43.238;23.124;2023-03-13T09:22:44;97548.88;;;15.57;26.06
39411;BME280;26579;43.238;23.124;2023-03-13T09:25:11;97540.94;;;16.14;24.67
39411;BME280;26579;43.238;23.124;2023-03-13T09:27:37;97538.91;;;15.70;24.69
39411;BME280;26579;43.238;23.124;2023-03-13T09:30:03;97521.59;;;15.21;25.29
39411;BME280;26579;43.238;23.124;2023-03-13T09:32:29;97540.38;;;15.16;26.25
39411;BME280;26579;43.238;23.124;2023-03-13T09:34:54;97518.19;;;14.81;25.62
39411;BME280;26579;43.238;23.124;2023-03-13T09:37:20;97525.09;;;14.73;26.31
39411;BME280;26579;43.238;23.124;2023-03-13T09:39:47;97519.84;;;14.82;27.40
39411;BME280;26579;43.238;23.124;2023-03-13T09:42:14;97519.19;;;15.56;25.88
39411;BME280;26579;43.238;23.124;2023-03-13T09:44:47;97502.72;;;15.64;25.54
39411;BME280;26579;43.238;23.124;2023-03-13T09:47:24;97507.44;;;15.60;25.48
39411;BME280;26579;43.238;23.124;2023-03-13T09:49:56;97497.81;;;15.42;25.80
39411;BME280;26579;43.238;23.124;2023-03-13T09:52:32;97490.16;;;15.11;26.25
39411;BME280;26579;43.238;23.124;2023-03-13T09:55:03;97498.19;;;14.61;26.48
39411;BME280;26579;43.238;23.124;2023-03-13T09:57:49;97494.81;;;15.17;27.21
39411;BME280;26579;43.238;23.124;2023-03-13T10:00:40;97486.63;;;15.39;26.52
39411;BME280;26579;43.238;23.124;2023-03-13T10:03:20;97480.94;;;15.54;25.69
39411;BME280;26579;43.238;23.124;2023-03-13T10:05:50;97479.50;;;15.12;26.59
39411;BME280;26579;43.238;23.124;2023-03-13T10:08:22;97470.69;;;15.04;26.65
39411;BME280;26579;43.238;23.124;2023-03-13T10:14:05;97451.75;;;14.13;27.96
39411;BME280;26579;43.238;23.124;2023-03-13T10:16:46;97434.69;;;14.96;26.87
39411;BME280;26579;43.238;23.124;2023-03-13T10:19:26;97431.41;;;14.84;26.65
39411;BME280;26579;43.238;23.124;2023-03-13T10:21:54;97418.06;;;15.15;26.47
39411;BME280;26579;43.238;23.124;2023-03-13T10:24:36;97426.47;;;15.93;27.09
39411;BME280;26579;43.238;23.124;2023-03-13T10:27:08;97428.47;;;15.81;25.10
39411;BME280;26579;43.238;23.124;2023-03-13T10:29:33;97429.47;;;15.43;25.59
39411;BME280;26579;43.238;23.124;2023-03-13T10:32:01;97413.25;;;15.57;25.56
39411;BME280;26579;43.238;23.124;2023-03-13T10:34:44;97413.78;;;15.61;26.22
39411;BME280;26579;43.238;23.124;2023-03-13T10:37:14;97412.31;;;15.86;26.53
39411;BME280;26579;43.238;23.124;2023-03-13T10:39:41;97408.16;;;16.29;26.13
39411;BME280;26579;43.238;23.124;2023-03-13T10:42:19;97406.72;;;16.52;24.90
39411;BME280;26579;43.238;23.124;2023-03-13T10:44:45;97408.16;;;16.29;24.52
39411;BME280;26579;43.238;23.124;2023-03-13T10:47:15;97401.53;;;16.07;24.80
39411;BME280;26579;43.238;23.124;2023-03-13T10:49:49;97383.13;;;16.07;24.92
39411;BME280;26579;43.238;23.124;2023-03-13T10:52:28;97388.38;;;16.43;24.68
39411;BME280;26579;43.238;23.124;2023-03-13T10:55:05;97373.81;;;16.48;24.37
39411;BME280;26579;43.238;23.124;2023-03-13T10:57:34;97376.47;;;16.74;24.54
39411;BME280;26579;43.238;23.124;2023-03-13T11:00:04;97375.31;;;16.95;24.28
39411;BME280;26579;43.238;23.124;2023-03-13T11:02:48;97369.56;;;16.91;25.39
39411;BME280;26579;43.238;23.124;2023-03-13T11:05:30;97372.84;;;17.19;24.28
39411;BME280;26579;43.238;23.124;2023-03-13T11:07:56;97354.63;;;17.26;24.89
39411;BME280;26579;43.238;23.124;2023-03-13T11:10:26;97359.53;;;17.55;25.27
39411;BME280;26579;43.238;23.124;2023-03-13T11:12:57;97347.47;;;17.45;24.92
39411;BME280;26579;43.238;23.124;2023-03-13T11:15:29;97354.56;;;17.18;25.25
39411;BME280;26579;43.238;23.124;2023-03-13T11:18:27;97346.00;;;17.08;24.99
39411;BME280;26579;43.238;23.124;2023-03-13T11:20:55;97350.59;;;17.40;26.42
39411;BME280;26579;43.238;23.124;2023-03-13T11:23:38;97348.34;;;17.61;25.98
39411;BME280;26579;43.238;23.124;2023-03-13T11:31:45;97326.81;;;17.24;24.47
39411;BME280;26579;43.238;23.124;2023-03-13T11:34:33;97327.69;;;17.32;24.61
39411;BME280;26579;43.238;23.124;2023-03-13T11:56:48;97313.59;;;16.37;24.84
39411;BME280;26579;43.238;23.124;2023-03-13T11:59:40;97308.94;;;16.49;25.95
39411;BME280;26579;43.238;23.124;2023-03-13T12:02:25;97315.38;;;16.11;25.32
39411;BME280;26579;43.238;23.124;2023-03-13T12:05:03;97321.22;;;15.87;25.38
39411;BME280;26579;43.238;23.124;2023-03-13T12:07:34;97305.16;;;15.72;26.30
39411;BME280;26579;43.238;23.124;2023-03-13T12:10:03;97308.78;;;15.71;25.80
39411;BME280;26579;43.238;23.124;2023-03-13T12:12:36;97309.44;;;15.91;25.80
39411;BME280;26579;43.238;23.124;2023-03-13T12:15:28;97304.69;;;15.31;27.31
39411;BME280;26579;43.238;23.124;2023-03-13T12:18:17;97301.03;;;15.87;27.50
39411;BME280;26579;43.238;23.124;2023-03-13T12:20:55;97303.53;;;16.06;26.09
39411;BME280;26579;43.238;23.124;2023-03-13T12:26:21;97296.31;;;16.26;25.98
39411;BME280;26579;43.238;23.124;2023-03-13T12:37:27;97285.22;;;15.79;27.43
39411;BME280;26579;43.238;23.124;2023-03-13T12:40:00;97277.63;;;15.94;26.99
39411;BME280;26579;43.238;23.124;2023-03-13T12:42:52;97289.97;;;16.37;26.66
39411;BME280;26579;43.238;23.124;2023-03-13T12:45:21;97290.53;;;16.49;25.55
39411;BME280;26579;43.238;23.124;2023-03-13T12:47:56;97292.66;;;16.45;25.50
39411;BME280;26579;43.238;23.124;2023-03-13T13:01:48;97278.69;;;15.37;27.36
39411;BME280;26579;43.238;23.124;2023-03-13T13:04:29;97278.16;;;15.79;27.88
39411;BME280;26579;43.238;23.124;2023-03-13T13:06:58;97281.09;;;15.94;25.79
39411;BME280;26579;43.238;23.124;2023-03-13T13:09:36;97278.00;;;15.99;27.19
39411;BME280;26579;43.238;23.124;2023-03-13T13:12:02;97271.06;;;16.34;27.50
39411;BME280;26579;43.238;23.124;2023-03-13T13:17:20;97266.81;;;16.59;25.74
39411;BME280;26579;43.238;23.124;2023-03-13T13:19:47;97260.53;;;16.07;25.26
39411;BME280;26579;43.238;23.124;2023-03-13T13:24:58;97257.72;;;16.27;26.51
39411;BME280;26579;43.238;23.124;2023-03-13T13:29:58;97262.13;;;16.00;27.87
39411;BME280;26579;43.238;23.124;2023-03-13T13:32:50;97266.69;;;16.42;28.04
39411;BME280;26579;43.238;23.124;2023-03-13T13:37:51;97252.75;;;15.98;26.29
39411;BME280;26579;43.238;23.124;2023-03-13T13:40:25;97257.66;;;16.19;26.37
39411;BME280;26579;43.238;23.124;2023-03-13T13:43:03;97252.16;;;15.86;25.58
39411;BME280;26579;43.238;23.124;2023-03-13T13:45:36;97262.66;;;15.86;25.83
39411;BME280;26579;43.238;23.124;2023-03-13T13:48:30;97257.00;;;15.99;26.51
39411;BME280;26579;43.238;23.124;2023-03-13T13:53:47;97254.38;;;15.63;25.49
39411;BME280;26579;43.238;23.124;2023-03-13T13:56:48;97259.88;;;15.70;25.96
39411;BME280;26579;43.238;23.124;2023-03-13T14:01:46;97259.75;;;15.44;26.55
39411;BME280;26579;43.238;23.124;2023-03-13T14:04:26;97252.88;;;15.15;26.79
39411;BME280;26579;43.238;23.124;2023-03-13T14:06:53;97265.44;;;15.39;26.40
39411;BME280;26579;43.238;23.124;2023-03-13T14:09:35;97267.38;;;15.09;26.03
39411;BME280;26579;43.238;23.124;2023-03-13T14:12:31;97266.56;;;15.09;26.33
39411;BME280;26579;43.238;23.124;2023-03-13T14:17:48;97251.41;;;15.03;26.45
39411;BME280;26579;43.238;23.124;2023-03-13T14:20:23;97263.84;;;15.28;26.06
39411;BME280;26579;43.238;23.124;2023-03-13T14:22:50;97263.88;;;15.46;26.00
39411;BME280;26579;43.238;23.124;2023-03-13T14:25:15;97257.13;;;15.61;26.36
39411;BME280;26579;43.238;23.124;2023-03-13T14:27:42;97248.25;;;15.72;26.12
39411;BME280;26579;43.238;23.124;2023-03-13T14:30:09;97238.25;;;15.76;25.63
39411;BME280;26579;43.238;23.124;2023-03-13T14:32:36;97246.91;;;15.68;25.36
39411;BME280;26579;43.238;23.124;2023-03-13T14:35:07;97246.00;;;15.77;25.75
39411;BME280;26579;43.238;23.124;2023-03-13T14:37:44;97247.28;;;15.91;26.25
39411;BME280;26579;43.238;23.124;2023-03-13T14:42:59;97252.47;;;16.27;26.39
39411;BME280;26579;43.238;23.124;2023-03-13T14:45:29;97245.78;;;16.33;27.58
39411;BME280;26579;43.238;23.124;2023-03-13T14:48:01;97247.56;;;16.06;25.33
39411;BME280;26579;43.238;23.124;2023-03-13T14:50:27;97237.97;;;15.79;25.45